Time;durP1;ratioP1;P1;durP2;ratioP2;P2;SDS_P1;SDS_P2;PMS_P1;PMS_P2;Temp;Humidity;BMP_temperature;BMP_pressure;BME280_temperature;BME280_humidity;BME280_pressure;Samples;Min_cycle;Max_cycle;Signal;HPM_P1;HPM_P2
2022/12/25 00:00:11;;;;;;;;;14.50;14.50;;;;;-146.50;100.00;59256.41;5077123;27;45576;-74
2022/12/25 00:02:37;;;;;;;;;15.00;13.00;;;;;-146.50;100.00;59256.41;5075586;28;45380;-74
2022/12/25 00:05:03;;;;;;;;;15.00;15.00;;;;;-146.50;100.00;59256.41;5076438;27;45395;-74
2022/12/25 00:07:28;;;;;;;;;12.25;10.00;;;;;-146.50;100.00;59256.41;5076305;27;45420;-74
2022/12/25 00:09:53;;;;;;;;;11.25;8.00;;;;;-146.50;100.00;59256.41;5076780;27;45391;-74
2022/12/25 00:12:21;;;;;;;;;6.25;6.25;;;;;-146.50;100.00;59256.41;5076262;27;45567;-74
2022/12/25 00:14:46;;;;;;;;;9.25;8.25;;;;;-146.50;100.00;59256.41;5076654;27;45427;-74
2022/12/25 00:17:12;;;;;;;;;5.75;5.50;;;;;-146.50;100.00;59256.41;5076682;27;45334;-74
2022/12/25 00:19:37;;;;;;;;;6.25;6.25;;;;;-146.50;100.00;59256.41;5076288;27;45444;-74
2022/12/25 00:22:03;;;;;;;;;7.00;7.00;;;;;-146.50;100.00;59256.41;5076011;27;46241;-75
2022/12/25 00:24:28;;;;;;;;;8.75;6.75;;;;;-146.50;100.00;59256.41;5076519;27;45290;-75
2022/12/25 00:26:53;;;;;;;;;5.50;5.50;;;;;-146.50;100.00;59256.41;5076384;27;45313;-74
2022/12/25 00:29:18;;;;;;;;;8.25;7.75;;;;;-146.50;100.00;59256.41;5076573;27;45384;-73
2022/12/25 00:31:44;;;;;;;;;7.25;7.00;;;;;-146.50;100.00;59256.41;5075737;27;45420;-73
2022/12/25 00:34:09;;;;;;;;;8.25;8.25;;;;;-146.50;100.00;59256.41;5076084;27;45275;-73
2022/12/25 00:36:34;;;;;;;;;5.75;5.50;;;;;-146.50;100.00;59256.41;5076450;27;45746;-73
2022/12/25 00:39:00;;;;;;;;;5.00;5.00;;;;;-146.50;100.00;59256.41;5076369;27;45479;-73
2022/12/25 00:44:12;;;;;;;;;7.00;6.00;;;;;-146.50;100.00;59256.41;5075785;28;45319;-73
2022/12/25 00:46:38;;;;;;;;;5.75;5.50;;;;;-146.50;100.00;59256.41;5076002;27;45365;-74
2022/12/25 00:49:04;;;;;;;;;4.50;4.50;;;;;-146.50;100.00;59256.41;5076264;28;45399;-74
2022/12/25 00:51:30;;;;;;;;;6.25;3.75;;;;;-146.50;100.00;59256.41;5076123;28;46136;-74
2022/12/25 00:53:55;;;;;;;;;5.50;5.50;;;;;-146.50;100.00;59256.41;5075770;28;45416;-74
2022/12/25 00:56:21;;;;;;;;;5.00;5.00;;;;;-146.50;100.00;59256.41;5075595;28;45484;-74
2022/12/25 00:58:46;;;;;;;;;9.25;6.25;;;;;-146.50;100.00;59256.41;5075811;27;45324;-74
2022/12/25 01:01:12;;;;;;;;;5.00;5.00;;;;;-146.50;100.00;59256.41;5075932;27;45369;-74
2022/12/25 01:03:37;;;;;;;;;4.00;4.00;;;;;-146.50;100.00;59256.41;5057640;28;45418;-75
2022/12/25 01:06:05;;;;;;;;;2.00;2.00;;;;;-146.50;100.00;59256.41;5075896;27;45441;-73
2022/12/25 01:08:33;;;;;;;;;3.50;3.50;;;;;-146.50;100.00;59256.41;5075808;27;45221;-73
2022/12/25 01:11:02;;;;;;;;;3.75;3.75;;;;;-146.50;100.00;59256.41;5075945;28;46091;-74
2022/12/25 01:13:28;;;;;;;;;4.75;3.00;;;;;-146.50;100.00;59256.41;5075443;27;45391;-73
2022/12/25 01:15:54;;;;;;;;;5.25;4.00;;;;;-146.50;100.00;59256.41;5075920;27;45373;-75
2022/12/25 01:18:21;;;;;;;;;3.25;3.25;;;;;-146.50;100.00;59256.41;5075476;27;45341;-75
2022/12/25 01:20:47;;;;;;;;;3.00;3.00;;;;;-146.50;100.00;59256.41;5075314;27;45311;-74
2022/12/25 01:23:13;;;;;;;;;5.25;4.00;;;;;-146.50;100.00;59256.41;5075668;27;45347;-74
2022/12/25 01:25:38;;;;;;;;;5.00;5.00;;;;;-146.50;100.00;59256.41;5075900;27;45435;-75
2022/12/25 01:28:04;;;;;;;;;3.25;3.25;;;;;-146.50;100.00;59256.41;5075404;27;45478;-74
2022/12/25 01:30:30;;;;;;;;;3.00;3.00;;;;;-146.50;100.00;59256.41;5075539;27;46105;-74
2022/12/25 01:32:56;;;;;;;;;4.00;4.00;;;;;-146.50;100.00;59256.41;5074141;27;45407;-76
2022/12/25 01:35:21;;;;;;;;;4.00;4.00;;;;;-146.50;100.00;59256.41;5074520;27;45373;-75
2022/12/25 01:37:46;;;;;;;;;5.00;4.75;;;;;-146.50;100.00;59256.41;5075249;27;45314;-74
2022/12/25 01:40:12;;;;;;;;;7.00;6.00;;;;;-146.50;100.00;59256.41;5107506;27;46034;-75
2022/12/25 01:42:37;;;;;;;;;6.50;5.00;;;;;-146.50;100.00;59256.41;5069251;27;45490;-75
2022/12/25 01:45:35;;;;;;;;;5.00;5.00;;;;;-146.50;100.00;59256.41;5082152;27;45821;-75
2022/12/25 01:48:04;;;;;;;;;7.00;5.00;;;;;-146.50;100.00;59256.41;5084702;27;45454;-74
2022/12/25 01:50:30;;;;;;;;;6.25;5.00;;;;;-146.50;100.00;59256.41;5087974;27;45393;-74
2022/12/25 01:52:56;;;;;;;;;6.00;4.50;;;;;-146.50;100.00;59256.41;5077349;27;45391;-73
2022/12/25 01:55:22;;;;;;;;;6.00;5.00;;;;;-146.50;100.00;59256.41;5080013;27;45469;-74
2022/12/25 01:57:48;;;;;;;;;4.25;4.25;;;;;-146.50;100.00;59256.41;5080493;27;45353;-74
2022/12/25 02:00:15;;;;;;;;;3.00;3.00;;;;;-146.50;100.00;59256.41;5076473;27;45528;-74
2022/12/25 02:02:41;;;;;;;;;3.00;3.00;;;;;-146.50;100.00;59256.41;5089538;27;45249;-74
2022/12/25 02:05:21;;;;;;;;;3.00;3.00;;;;;-146.50;100.00;59256.41;5071339;27;45451;-73
2022/12/25 02:07:48;;;;;;;;;2.50;2.50;;;;;-146.50;100.00;59256.41;5068982;27;45572;-74
2022/12/25 02:10:13;;;;;;;;;2.00;2.00;;;;;-146.50;100.00;59256.41;5102165;27;48178;-74
2022/12/25 02:12:40;;;;;;;;;3.50;3.00;;;;;-146.50;100.00;59256.41;5091603;27;45474;-74
2022/12/25 02:15:15;;;;;;;;;4.00;3.00;;;;;-146.50;100.00;59256.41;5073295;27;45519;-74
2022/12/25 02:17:47;;;;;;;;;2.00;2.00;;;;;-146.50;100.00;59256.41;5075217;27;45536;-73
2022/12/25 02:20:31;;;;;;;;;2.00;2.00;;;;;-146.50;100.00;59256.41;5075798;27;46262;-73
2022/12/25 02:23:34;;;;;;;;;3.00;3.00;;;;;-146.50;100.00;59256.41;5075028;27;45331;-73
2022/12/25 02:26:02;;;;;;;;;2.00;1.00;;;;;-146.50;100.00;59256.41;5080053;27;45323;-74
2022/12/25 02:28:35;;;;;;;;;2.00;2.00;;;;;-146.50;100.00;59256.41;5090584;27;45556;-74
2022/12/25 02:31:28;;;;;;;;;2.67;2.67;;;;;-146.50;100.00;59256.41;5088309;27;45527;-74
2022/12/25 02:34:10;;;;;;;;;2.00;2.00;;;;;-146.50;100.00;59256.41;5079561;27;45439;-74
2022/12/25 02:36:44;;;;;;;;;7.00;3.00;;;;;-146.50;100.00;59256.41;5089510;27;45473;-74
2022/12/25 02:42:07;;;;;;;;;3.00;3.00;;;;;-146.50;100.00;59256.41;5076101;27;45336;-74
2022/12/25 03:07:20;;;;;;;;;4.75;4.75;;;;;-146.50;100.00;59256.41;5079867;27;45468;-72
2022/12/25 03:12:44;;;;;;;;;3.00;3.00;;;;;-146.50;100.00;59256.41;5083786;27;45389;-73
2022/12/25 03:18:02;;;;;;;;;4.50;4.50;;;;;-146.50;100.00;59256.41;5076299;27;45442;-71
2022/12/25 03:28:44;;;;;;;;;2.00;2.00;;;;;-146.50;100.00;59256.41;5074945;28;45390;-73
2022/12/25 03:31:20;;;;;;;;;3.33;3.33;;;;;-146.50;100.00;59256.41;5076844;27;45408;-73
2022/12/25 03:37:07;;;;;;;;;3.75;3.75;;;;;-146.50;100.00;59256.41;5074453;27;45861;-73
2022/12/25 04:38:09;;;;;;;;;9.75;8.50;;;;;-146.50;100.00;59256.41;5063144;27;45493;-73
2022/12/25 04:40:34;;;;;;;;;12.25;12.25;;;;;-146.50;100.00;59256.41;5087735;27;45349;-73
2022/12/25 04:43:00;;;;;;;;;10.75;10.75;;;;;-146.50;100.00;59256.41;5073111;27;46008;-73
2022/12/25 04:45:25;;;;;;;;;12.75;10.00;;;;;-146.50;100.00;59256.41;5075263;27;45403;-73
2022/12/25 04:47:50;;;;;;;;;11.25;10.00;;;;;-146.50;100.00;59256.41;5074215;27;45410;-73
2022/12/25 04:50:16;;;;;;;;;15.50;13.00;;;;;-146.50;100.00;59256.41;5080570;27;45464;-74
2022/12/25 04:52:41;;;;;;;;;12.50;12.50;;;;;-146.50;100.00;59256.41;5085368;27;47192;-73
2022/12/25 04:55:08;;;;;;;;;17.25;16.00;;;;;-146.50;100.00;59256.41;5087717;27;45414;-73
2022/12/25 04:57:34;;;;;;;;;17.00;16.00;;;;;-146.50;100.00;59256.41;5076118;27;45448;-73
2022/12/25 04:59:59;;;;;;;;;15.25;15.25;;;;;-146.50;100.00;59256.41;5090540;27;45656;-73
2022/12/25 05:02:25;;;;;;;;;20.50;16.50;;;;;-146.50;100.00;59256.41;5081576;27;45433;-73
2022/12/25 05:04:50;;;;;;;;;19.00;15.75;;;;;-146.50;100.00;59256.41;5085584;27;45488;-73
2022/12/25 05:07:16;;;;;;;;;15.50;14.25;;;;;-146.50;100.00;59256.41;5088453;27;45416;-72
2022/12/25 05:09:41;;;;;;;;;21.25;17.25;;;;;-146.50;100.00;59256.41;5078133;27;45311;-73
2022/12/25 05:12:08;;;;;;;;;19.25;15.25;;;;;-146.50;100.00;59256.41;5089772;27;45537;-72
2022/12/25 05:14:33;;;;;;;;;19.75;18.00;;;;;-146.50;100.00;59256.41;5082855;27;45432;-73
2022/12/25 05:16:59;;;;;;;;;21.25;18.25;;;;;-146.50;100.00;59256.41;5083870;27;45528;-73
2022/12/25 05:19:25;;;;;;;;;19.75;17.75;;;;;-146.50;100.00;59256.41;5089582;27;45415;-73
2022/12/25 05:21:51;;;;;;;;;17.75;16.50;;;;;-146.50;100.00;59256.41;5077983;27;47448;-73
2022/12/25 05:24:16;;;;;;;;;18.50;15.50;;;;;-146.50;100.00;59256.41;5088427;27;45436;-75
2022/12/25 05:26:42;;;;;;;;;20.25;18.75;;;;;-146.50;100.00;59256.41;5071710;27;45472;-73
2022/12/25 05:29:07;;;;;;;;;19.00;16.75;;;;;-146.50;100.00;59256.41;5086674;27;45400;-75
2022/12/25 05:31:32;;;;;;;;;22.25;20.00;;;;;-146.50;100.00;59256.41;5078981;27;46213;-75
2022/12/25 05:33:58;;;;;;;;;15.25;15.25;;;;;-146.50;100.00;59256.41;5091545;27;45338;-75
2022/12/25 05:36:23;;;;;;;;;22.25;21.00;;;;;-146.50;100.00;59256.41;5081099;27;45362;-74
2022/12/25 05:38:49;;;;;;;;;19.50;17.25;;;;;-146.50;100.00;59256.41;5084864;27;45365;-75
2022/12/25 05:41:15;;;;;;;;;19.00;13.50;;;;;-146.50;100.00;59256.41;5074514;27;46004;-74
2022/12/25 05:43:40;;;;;;;;;18.00;16.75;;;;;-146.50;100.00;59256.41;5073741;28;45319;-74
2022/12/25 05:46:08;;;;;;;;;16.25;14.00;;;;;-146.50;100.00;59256.41;5067790;28;45366;-74
2022/12/25 05:48:35;;;;;;;;;17.25;17.25;;;;;-146.50;100.00;59256.41;5063801;28;45247;-75
2022/12/25 05:51:08;;;;;;;;;25.50;23.25;;;;;-146.50;100.00;59256.41;5054612;28;46314;-74
2022/12/25 05:53:34;;;;;;;;;19.75;19.50;;;;;-146.50;100.00;59256.41;5074777;27;45467;-75
2022/12/25 05:56:02;;;;;;;;;16.75;15.50;;;;;-146.50;100.00;59256.41;5074305;27;45460;-75
2022/12/25 05:58:29;;;;;;;;;13.75;9.50;;;;;-146.50;100.00;59256.41;5070472;28;45381;-75
2022/12/25 06:00:55;;;;;;;;;21.25;20.75;;;;;-146.50;100.00;59256.41;5066304;28;46458;-74
2022/12/25 06:03:21;;;;;;;;;22.00;20.00;;;;;-146.50;100.00;59256.41;5073357;28;45386;-75
2022/12/25 06:05:47;;;;;;;;;15.00;12.50;;;;;-146.50;100.00;59256.41;5074795;28;45380;-74
2022/12/25 06:08:12;;;;;;;;;18.00;16.75;;;;;-146.50;100.00;59256.41;5074616;28;45351;-74
2022/12/25 06:10:37;;;;;;;;;18.00;17.75;;;;;-146.50;100.00;59256.41;5071701;28;46992;-74
2022/12/25 06:13:03;;;;;;;;;19.25;18.25;;;;;-146.50;100.00;59256.41;5070914;28;45441;-74
2022/12/25 06:15:28;;;;;;;;;19.25;17.75;;;;;-146.50;100.00;59256.41;5074806;28;45309;-73
2022/12/25 06:17:54;;;;;;;;;16.00;15.00;;;;;-146.50;100.00;59256.41;5074301;28;45347;-74
2022/12/25 06:20:19;;;;;;;;;15.00;14.00;;;;;-146.50;100.00;59256.41;5074008;27;46149;-74
2022/12/25 06:22:45;;;;;;;;;22.50;19.00;;;;;-146.50;100.00;59256.41;5073339;28;45523;-74
2022/12/25 06:25:10;;;;;;;;;22.50;19.00;;;;;-146.50;100.00;59256.41;5074521;27;45465;-74
2022/12/25 06:27:36;;;;;;;;;18.00;17.50;;;;;-146.50;100.00;59256.41;5074761;27;45442;-74
2022/12/25 06:30:01;;;;;;;;;21.75;16.50;;;;;-146.50;100.00;59256.41;5073355;28;48343;-74
2022/12/25 06:32:27;;;;;;;;;21.00;16.50;;;;;-146.50;100.00;59256.41;5075096;27;45409;-74
2022/12/25 06:34:52;;;;;;;;;16.50;15.50;;;;;-146.50;100.00;59256.41;5075638;27;45437;-74
2022/12/25 06:37:17;;;;;;;;;16.50;14.25;;;;;-146.50;100.00;59256.41;5074894;27;45445;-74
2022/12/25 06:39:43;;;;;;;;;19.50;14.50;;;;;-146.50;100.00;59256.41;5074849;27;45732;-74
2022/12/25 06:42:08;;;;;;;;;18.75;16.00;;;;;-146.50;100.00;59256.41;5073348;28;45886;-73
2022/12/25 06:44:33;;;;;;;;;19.00;16.00;;;;;-146.50;100.00;59256.41;5074561;27;45340;-74
2022/12/25 06:46:59;;;;;;;;;21.75;17.00;;;;;-146.50;100.00;59256.41;5074641;28;45414;-72
2022/12/25 06:49:24;;;;;;;;;18.00;16.00;;;;;-146.50;100.00;59256.41;5074218;27;46094;-74
2022/12/25 06:51:50;;;;;;;;;15.50;15.50;;;;;-146.50;100.00;59256.41;5073826;27;45465;-74
2022/12/25 06:54:15;;;;;;;;;17.75;16.75;;;;;-146.50;100.00;59256.41;5072589;28;45370;-74
2022/12/25 06:56:40;;;;;;;;;16.25;16.25;;;;;-146.50;100.00;59256.41;5074395;27;45553;-74
2022/12/25 06:59:08;;;;;;;;;20.25;17.50;;;;;-146.50;100.00;59256.41;5077829;27;45472;-74
2022/12/25 07:01:43;;;;;;;;;14.25;14.25;;;;;-146.50;100.00;59256.41;5077856;27;45348;-74
2022/12/25 07:04:22;;;;;;;;;22.75;18.75;;;;;-146.50;100.00;59256.41;5077374;27;45409;-74
2022/12/25 07:06:48;;;;;;;;;32.75;31.50;;;;;-146.50;100.00;59256.41;5077411;27;45428;-74
2022/12/25 07:09:13;;;;;;;;;26.50;22.50;;;;;-146.50;100.00;59256.41;5077258;28;46179;-74
2022/12/25 07:11:38;;;;;;;;;26.75;22.25;;;;;-146.50;100.00;59256.41;5076032;28;45479;-74
2022/12/25 07:14:04;;;;;;;;;22.25;17.75;;;;;-146.50;100.00;59256.41;5059215;28;45393;-73
2022/12/25 07:16:29;;;;;;;;;19.00;16.00;;;;;-146.50;100.00;59256.41;5077672;27;45275;-74
2022/12/25 07:18:54;;;;;;;;;20.25;17.25;;;;;-146.50;100.00;59256.41;5077249;27;46246;-74
2022/12/25 07:21:21;;;;;;;;;24.50;20.25;;;;;-146.50;100.00;59256.41;5076954;27;45236;-74
2022/12/25 07:23:48;;;;;;;;;19.75;19.00;;;;;-146.50;100.00;59256.41;5077428;27;45303;-74
2022/12/25 07:26:16;;;;;;;;;18.50;16.50;;;;;-146.50;100.00;59256.41;5077459;27;45440;-74
2022/12/25 07:28:41;;;;;;;;;17.00;16.00;;;;;-146.50;100.00;59256.41;5076685;27;46204;-74
2022/12/25 07:31:11;;;;;;;;;18.00;16.00;;;;;-146.50;100.00;59256.41;5073099;27;45482;-74
2022/12/25 07:33:36;;;;;;;;;17.50;17.00;;;;;-146.50;100.00;59256.41;5077204;27;45412;-74
2022/12/25 07:36:04;;;;;;;;;16.00;14.50;;;;;-146.50;100.00;59256.41;5076958;28;45440;-74
2022/12/25 07:38:29;;;;;;;;;17.00;15.50;;;;;-146.50;100.00;59256.41;5077028;27;45412;-74
2022/12/25 07:40:55;;;;;;;;;17.00;16.50;;;;;-146.50;100.00;59256.41;5076879;27;45481;-74
2022/12/25 07:43:20;;;;;;;;;14.25;13.50;;;;;-146.50;100.00;59256.41;5077031;27;45324;-74
2022/12/25 07:45:45;;;;;;;;;16.00;16.00;;;;;-146.50;100.00;59256.41;5076771;27;45425;-74
2022/12/25 07:48:11;;;;;;;;;11.50;10.25;;;;;-146.50;100.00;59256.41;5075887;28;46036;-74
2022/12/25 07:50:36;;;;;;;;;17.75;16.75;;;;;-146.50;100.00;59256.41;5076735;28;45322;-73
2022/12/25 07:53:01;;;;;;;;;13.00;13.00;;;;;-146.50;100.00;59256.41;5058387;28;45950;-73
2022/12/25 07:55:27;;;;;;;;;15.50;13.75;;;;;-146.50;100.00;59256.41;5076925;27;45473;-74
2022/12/25 07:57:52;;;;;;;;;16.00;14.50;;;;;-146.50;100.00;59256.41;5076204;27;46277;-73
2022/12/25 08:00:18;;;;;;;;;16.50;14.00;;;;;-146.50;100.00;59256.41;5076679;28;45475;-74
2022/12/25 08:02:43;;;;;;;;;13.25;12.75;;;;;-146.50;100.00;59256.41;5077300;27;45396;-74
2022/12/25 08:05:09;;;;;;;;;7.25;7.25;;;;;-146.50;100.00;59256.41;5075262;28;45384;-74
2022/12/25 08:07:34;;;;;;;;;15.00;10.75;;;;;-146.50;100.00;59256.41;5076454;27;45945;-74
2022/12/25 08:10:01;;;;;;;;;11.25;11.25;;;;;-146.50;100.00;59256.41;5074746;27;45350;-74
2022/12/25 08:12:26;;;;;;;;;12.25;11.00;;;;;-146.50;100.00;59256.41;5076057;27;45352;-73
2022/12/25 08:14:51;;;;;;;;;9.25;9.25;;;;;-146.50;100.00;59256.41;5092188;27;45341;-74
2022/12/25 08:17:17;;;;;;;;;12.00;11.00;;;;;-146.50;100.00;59256.41;5075979;27;45355;-74
2022/12/25 08:19:42;;;;;;;;;11.00;9.75;;;;;-146.50;100.00;59256.41;5074512;28;45436;-74
2022/12/25 08:22:07;;;;;;;;;10.75;10.25;;;;;-146.50;100.00;59256.41;5076528;27;45291;-74
2022/12/25 08:24:33;;;;;;;;;8.75;8.75;;;;;-146.50;100.00;59256.41;5074885;27;45321;-74
2022/12/25 08:26:58;;;;;;;;;11.50;11.00;;;;;-146.50;100.00;59256.41;5074682;28;45942;-73
2022/12/25 08:29:24;;;;;;;;;12.00;11.50;;;;;-146.50;100.00;59256.41;5075811;28;45342;-74
2022/12/25 08:31:49;;;;;;;;;10.50;9.25;;;;;-146.50;100.00;59256.41;5075964;27;45371;-74
2022/12/25 08:34:14;;;;;;;;;7.00;7.00;;;;;-146.50;100.00;59256.41;5076099;27;45311;-74
2022/12/25 08:36:40;;;;;;;;;12.25;12.00;;;;;-146.50;100.00;59256.41;5076063;28;45456;-74
2022/12/25 08:39:06;;;;;;;;;11.50;10.25;;;;;-146.50;100.00;59256.41;5075995;27;45422;-74
2022/12/25 08:41:35;;;;;;;;;11.75;11.00;;;;;-146.50;100.00;59256.41;5076107;27;45476;-74
2022/12/25 08:44:00;;;;;;;;;11.75;11.75;;;;;-146.50;100.00;59256.41;5076018;27;45420;-73
2022/12/25 08:46:25;;;;;;;;;11.75;11.50;;;;;-146.50;100.00;59256.41;5075740;27;45412;-74
2022/12/25 08:48:51;;;;;;;;;11.00;9.25;;;;;-146.50;100.00;59256.41;5091673;27;45486;-79
2022/12/25 08:51:19;;;;;;;;;15.75;10.75;;;;;-146.50;100.00;59256.41;5076007;28;45337;-79
2022/12/25 08:53:46;;;;;;;;;11.00;11.00;;;;;-146.50;100.00;59256.41;5075766;28;45489;-79
2022/12/25 08:56:13;;;;;;;;;8.75;8.75;;;;;-146.50;100.00;59256.41;5075210;28;45462;-78
2022/12/25 08:58:38;;;;;;;;;11.75;11.75;;;;;-146.50;100.00;59256.41;5075468;27;45433;-78
2022/12/25 09:01:05;;;;;;;;;12.00;12.00;;;;;-146.50;100.00;59256.41;5075812;27;45383;-78
2022/12/25 09:03:33;;;;;;;;;11.00;8.50;;;;;-146.50;100.00;59256.41;5075651;27;45352;-78
2022/12/25 09:06:07;;;;;;;;;10.50;10.50;;;;;-146.50;100.00;59256.41;5075669;27;46665;-78
2022/12/25 09:08:34;;;;;;;;;10.00;10.00;;;;;-146.50;100.00;59256.41;5075391;27;45449;-78
2022/12/25 09:11:04;;;;;;;;;11.50;11.50;;;;;-146.50;100.00;59256.41;5075324;27;45386;-78
2022/12/25 09:13:29;;;;;;;;;10.50;9.00;;;;;-146.50;100.00;59256.41;5075451;27;45400;-79
2022/12/25 09:15:55;;;;;;;;;9.00;9.00;;;;;-146.50;100.00;59256.41;5075317;27;45464;-79
2022/12/25 09:18:20;;;;;;;;;11.25;10.00;;;;;-146.50;100.00;59256.41;5075290;27;45362;-78
2022/12/25 09:20:45;;;;;;;;;8.50;8.50;;;;;-146.50;100.00;59256.41;5075289;27;45313;-78
2022/12/25 09:23:11;;;;;;;;;8.50;8.50;;;;;-146.50;100.00;59256.41;5075346;27;45546;-78
2022/12/25 09:25:36;;;;;;;;;9.00;7.50;;;;;-146.50;100.00;59256.41;5075441;27;45766;-78
2022/12/25 09:28:02;;;;;;;;;11.50;11.50;;;;;-146.50;100.00;59256.41;5075506;27;45434;-78
2022/12/25 09:30:27;;;;;;;;;10.25;10.00;;;;;-146.50;100.00;59256.41;5075426;27;45252;-78
2022/12/25 09:32:52;;;;;;;;;10.00;10.00;;;;;-146.50;100.00;59256.41;5075215;27;45296;-79
2022/12/25 09:35:18;;;;;;;;;10.00;8.75;;;;;-146.50;100.00;59256.41;5075243;27;45361;-78
2022/12/25 09:37:43;;;;;;;;;11.50;8.25;;;;;-146.50;100.00;59256.41;5073623;28;45414;-78
2022/12/25 09:40:20;;;;;;;;;10.50;10.50;;;;;-146.50;100.00;59256.41;5075789;28;45632;-78
2022/12/25 09:42:48;;;;;;;;;10.00;8.75;;;;;-146.50;100.00;59256.41;5075647;27;45419;-78
2022/12/25 09:45:18;;;;;;;;;10.75;9.50;;;;;-146.50;100.00;59256.41;5074653;27;45369;-78
2022/12/25 09:47:46;;;;;;;;;8.75;8.75;;;;;-146.50;100.00;59256.41;5075355;27;45509;-76
2022/12/25 09:50:17;;;;;;;;;11.75;11.75;;;;;-146.50;100.00;59256.41;5074769;27;45477;-76
2022/12/25 09:52:50;;;;;;;;;10.75;9.50;;;;;-146.50;100.00;59256.41;5075029;28;45597;-77
2022/12/25 09:55:23;;;;;;;;;7.25;7.00;;;;;-146.50;100.00;59256.41;5091931;27;45412;-77
2022/12/25 09:57:54;;;;;;;;;10.50;8.00;;;;;-146.50;100.00;59256.41;5075281;28;45539;-77
2022/12/25 10:00:23;;;;;;;;;7.75;7.75;;;;;-146.50;100.00;59256.41;5076612;27;45402;-77
2022/12/25 10:03:06;;;;;;;;;7.25;7.25;;;;;-146.50;100.00;59256.41;5075572;27;45352;-78
2022/12/25 10:05:46;;;;;;;;;7.00;6.00;;;;;-146.50;100.00;59256.41;5075186;28;45456;-78
2022/12/25 10:08:46;;;;;;;;;8.25;7.00;;;;;-146.50;100.00;59256.41;5074843;28;45303;-77
2022/12/25 10:11:23;;;;;;;;;9.00;8.00;;;;;-146.50;100.00;59256.41;5062578;27;45390;-77
2022/12/25 10:14:07;;;;;;;;;10.75;9.50;;;;;-146.50;100.00;59256.41;5074771;27;45486;-77
2022/12/25 10:16:41;;;;;;;;;9.00;9.00;;;;;-146.50;100.00;59256.41;5074600;28;46183;-78
2022/12/25 10:19:22;;;;;;;;;6.75;6.75;;;;;-146.50;100.00;59256.41;5074298;27;45382;-77
2022/12/25 10:21:51;;;;;;;;;12.75;10.50;;;;;-146.50;100.00;59256.41;5073456;28;45409;-77
2022/12/25 10:24:16;;;;;;;;;9.75;8.00;;;;;-146.50;100.00;59256.41;5073557;28;45438;-78
2022/12/25 10:26:42;;;;;;;;;9.00;9.00;;;;;-146.50;100.00;59256.41;5074528;28;46100;-77
2022/12/25 10:29:18;;;;;;;;;6.50;6.50;;;;;-146.50;100.00;59256.41;5074565;27;45572;-77
2022/12/25 10:31:46;;;;;;;;;6.25;6.25;;;;;-146.50;100.00;59256.41;5074368;27;45426;-76
2022/12/25 10:34:13;;;;;;;;;9.25;8.00;;;;;-146.50;100.00;59256.41;5078186;27;45456;-77
2022/12/25 10:36:40;;;;;;;;;8.00;8.00;;;;;-146.50;100.00;59256.41;5076308;28;45465;-78
2022/12/25 10:39:06;;;;;;;;;8.25;7.00;;;;;-146.50;100.00;59256.41;5076596;28;45406;-77
2022/12/25 10:41:50;;;;;;;;;7.50;6.50;;;;;-146.50;100.00;59256.41;5078179;27;45311;-77
2022/12/25 10:44:20;;;;;;;;;7.50;7.50;;;;;-146.50;100.00;59256.41;5077891;28;45296;-77
2022/12/25 10:46:54;;;;;;;;;8.33;7.33;;;;;-146.50;100.00;59256.41;5077798;27;45339;-78
2022/12/25 10:49:23;;;;;;;;;10.75;9.00;;;;;-146.50;100.00;59256.41;5077612;27;45563;-77
2022/12/25 10:51:49;;;;;;;;;8.50;7.25;;;;;-146.50;100.00;59256.41;5076366;28;45396;-77
2022/12/25 10:54:18;;;;;;;;;7.50;7.00;;;;;-146.50;100.00;59256.41;5077998;27;45409;-77
2022/12/25 10:56:53;;;;;;;;;8.75;7.75;;;;;-146.50;100.00;59256.41;5076193;28;46814;-77
2022/12/25 10:59:18;;;;;;;;;8.50;6.25;;;;;-146.50;100.00;59256.41;5077264;27;45404;-77
2022/12/25 11:01:44;;;;;;;;;9.50;8.25;;;;;-146.50;100.00;59256.41;5077491;27;45378;-77
2022/12/25 11:04:19;;;;;;;;;8.50;6.75;;;;;-146.50;100.00;59256.41;5076548;28;45512;-77
2022/12/25 11:06:55;;;;;;;;;10.25;10.00;;;;;-146.50;100.00;59256.41;5091657;27;46202;-77
2022/12/25 11:09:21;;;;;;;;;6.00;6.00;;;;;-146.50;100.00;59256.41;5075982;28;45377;-77
2022/12/25 11:11:47;;;;;;;;;7.00;7.00;;;;;-146.50;100.00;59256.41;5073243;28;45419;-77
2022/12/25 11:14:18;;;;;;;;;6.00;5.00;;;;;-146.50;100.00;59256.41;5075820;27;45338;-77
2022/12/25 11:16:43;;;;;;;;;5.00;5.00;;;;;-146.50;100.00;59256.41;5075715;27;45559;-77
2022/12/25 11:19:25;;;;;;;;;7.50;6.00;;;;;-146.50;100.00;59256.41;5075716;27;45380;-77
2022/12/25 11:21:53;;;;;;;;;5.00;5.00;;;;;-146.50;100.00;59256.41;5071611;28;45563;-77
2022/12/25 11:24:21;;;;;;;;;6.00;6.00;;;;;-146.50;100.00;59256.41;5074395;28;45489;-76
2022/12/25 11:26:48;;;;;;;;;22.00;20.00;;;;;-146.50;100.00;59256.41;5072706;28;47073;-76
2022/12/25 11:29:42;;;;;;;;;15.50;15.50;;;;;-146.50;100.00;59256.41;5075447;27;45493;-76
2022/12/25 11:32:38;;;;;;;;;7.00;6.50;;;;;-146.50;100.00;59256.41;5071992;28;45429;-76
2022/12/25 11:35:11;;;;;;;;;6.00;5.00;;;;;-146.50;100.00;59256.41;5069764;27;45460;-77
2022/12/25 11:37:44;;;;;;;;;5.00;5.00;;;;;-146.50;100.00;59256.41;5075395;28;47302;-76
2022/12/25 11:40:26;;;;;;;;;9.00;6.25;;;;;-146.50;100.00;59256.41;5074450;28;45574;-76
2022/12/25 11:42:57;;;;;;;;;5.00;4.25;;;;;-146.50;100.00;59256.41;5074688;28;45551;-76
2022/12/25 11:45:30;;;;;;;;;5.00;4.00;;;;;-146.50;100.00;59256.41;5087557;27;45630;-76
2022/12/25 11:48:01;;;;;;;;;8.00;6.50;;;;;-146.50;100.00;59256.41;5073802;28;45347;-77
2022/12/25 11:50:35;;;;;;;;;6.75;6.25;;;;;-146.50;100.00;59256.41;5075156;27;45486;-77
2022/12/25 11:53:10;;;;;;;;;7.00;7.00;;;;;-146.50;100.00;59256.41;5073375;27;45444;-77
2022/12/25 11:55:43;;;;;;;;;5.75;5.00;;;;;-146.50;100.00;59256.41;5075200;28;45445;-76
2022/12/25 11:58:30;;;;;;;;;5.50;4.25;;;;;-146.50;100.00;59256.41;5073256;28;45388;-77
2022/12/25 12:01:00;;;;;;;;;5.75;5.25;;;;;-146.50;100.00;59256.41;5074924;27;45422;-77
2022/12/25 12:03:32;;;;;;;;;4.75;4.75;;;;;-146.50;100.00;59256.41;5075577;27;45321;-77
2022/12/25 12:06:04;;;;;;;;;5.75;4.00;;;;;-146.50;100.00;59256.41;5075326;27;45673;-76
2022/12/25 12:08:31;;;;;;;;;6.00;6.00;;;;;-146.50;100.00;59256.41;5075300;27;46149;-77
2022/12/25 12:11:15;;;;;;;;;6.25;6.25;;;;;-146.50;100.00;59256.41;5073379;27;45464;-76
2022/12/25 12:14:07;;;;;;;;;7.25;5.75;;;;;-146.50;100.00;59256.41;5072730;28;45448;-77
2022/12/25 12:16:33;;;;;;;;;6.75;6.00;;;;;-146.50;100.00;59256.41;5072977;28;45378;-76
2022/12/25 12:19:23;;;;;;;;;6.00;5.00;;;;;-146.50;100.00;59256.41;5104997;27;45616;-77
2022/12/25 12:21:49;;;;;;;;;8.75;7.75;;;;;-146.50;100.00;59256.41;5071309;28;45520;-77
2022/12/25 12:24:32;;;;;;;;;8.50;7.00;;;;;-146.50;100.00;59256.41;5073664;28;45711;-77
2022/12/25 12:27:21;;;;;;;;;8.00;6.50;;;;;-146.50;100.00;59256.41;5074998;28;45548;-77
2022/12/25 12:29:54;;;;;;;;;7.50;6.50;;;;;-146.50;100.00;59256.41;5071423;28;46597;-76
2022/12/25 12:32:29;;;;;;;;;9.00;8.75;;;;;-146.50;100.00;59256.41;5071787;28;45380;-77
2022/12/25 12:34:55;;;;;;;;;5.75;5.75;;;;;-146.50;100.00;59256.41;5075286;27;45432;-76
2022/12/25 12:37:37;;;;;;;;;8.50;6.25;;;;;-146.50;100.00;59256.41;5074851;27;45528;-76
2022/12/25 12:40:06;;;;;;;;;5.00;5.00;;;;;-146.50;100.00;59256.41;5072331;28;46183;-76
2022/12/25 12:42:39;;;;;;;;;5.00;4.00;;;;;-146.50;100.00;59256.41;5074586;27;45510;-76
2022/12/25 12:45:35;;;;;;;;;4.50;4.00;;;;;-146.50;100.00;59256.41;5088075;27;45467;-75
2022/12/25 12:48:12;;;;;;;;;5.75;5.75;;;;;-146.50;100.00;59256.41;5063601;28;45504;-75
2022/12/25 12:50:40;;;;;;;;;4.50;3.75;;;;;-146.50;100.00;59256.41;5074705;27;45334;-76
2022/12/25 12:53:20;;;;;;;;;3.50;3.50;;;;;-146.50;100.00;59256.41;5074613;27;45635;-79